Time;durP1;ratioP1;P1;durP2;ratioP2;P2;SDS_P1;SDS_P2;PMS_P1;PMS_P2;Temp;Humidity;BMP_temperature;BMP_pressure;BME280_temperature;BME280_humidity;BME280_pressure;Samples;Min_cycle;Max_cycle;Signal;HPM_P1;HPM_P2
2022/01/31 00:00:05;;;;;;;3.90;2.83;;;;;;;0.75;100.00;97305.44;4947975;28;20213;-53
2022/01/31 00:02:35;;;;;;;3.63;3.30;;;;;;;0.72;100.00;97309.13;4947020;28;20202;-54
2022/01/31 00:05:05;;;;;;;8.03;3.73;;;;;;;0.66;100.00;97317.44;4908560;28;20246;-57
2022/01/31 00:07:33;;;;;;;5.87;3.23;;;;;;;0.71;100.00;97318.72;4944068;28;20211;-58
2022/01/31 00:10:05;;;;;;;6.53;2.80;;;;;;;1.06;100.00;97316.94;4930360;28;20240;-54
2022/01/31 00:12:38;;;;;;;7.13;3.87;;;;;;;1.09;100.00;97300.19;4938543;28;20231;-56
2022/01/31 00:15:07;;;;;;;7.90;3.23;;;;;;;0.92;100.00;97312.78;4951852;28;20226;-51
2022/01/31 00:17:35;;;;;;;6.50;3.60;;;;;;;0.99;100.00;97313.16;4942458;28;20466;-56
2022/01/31 00:20:05;;;;;;;3.73;2.70;;;;;;;0.91;100.00;97311.13;4919212;28;20223;-53
2022/01/31 00:22:33;;;;;;;6.60;3.03;;;;;;;0.72;100.00;97299.50;4944398;28;20695;-58
2022/01/31 00:25:01;;;;;;;8.73;4.50;;;;;;;0.69;100.00;97283.28;4934472;28;20242;-49
2022/01/31 00:27:29;;;;;;;4.77;2.83;;;;;;;0.66;100.00;97283.53;4944180;28;20203;-57
2022/01/31 00:29:57;;;;;;;4.77;3.40;;;;;;;0.62;100.00;97271.66;4931075;28;20260;-57
2022/01/31 00:32:29;;;;;;;8.60;3.40;;;;;;;0.62;100.00;97269.06;4947519;28;20203;-55
2022/01/31 00:34:58;;;;;;;5.57;2.57;;;;;;;0.56;100.00;97276.38;4946061;28;20226;-51
2022/01/31 00:37:27;;;;;;;6.23;3.17;;;;;;;0.53;100.00;97278.41;4920922;28;20215;-53
2022/01/31 00:39:55;;;;;;;4.50;3.13;;;;;;;0.63;100.00;97268.13;4934199;28;21211;-51
2022/01/31 00:42:25;;;;;;;3.57;2.77;;;;;;;0.56;100.00;97263.34;4924104;28;20837;-55
2022/01/31 00:44:55;;;;;;;7.73;4.13;;;;;;;0.62;100.00;97262.06;4927973;28;20260;-56
2022/01/31 00:47:25;;;;;;;5.60;3.53;;;;;;;0.56;100.00;97236.47;4947091;28;20210;-55
2022/01/31 00:50:06;;;;;;;11.73;3.67;;;;;;;0.50;100.00;97226.50;4949374;28;20300;-56
2022/01/31 00:52:38;;;;;;;7.43;3.73;;;;;;;0.52;100.00;97209.78;4918744;28;20703;-55
2022/01/31 00:55:07;;;;;;;5.87;3.53;;;;;;;0.56;100.00;97219.03;4945954;28;20230;-53
2022/01/31 00:57:35;;;;;;;10.43;3.17;;;;;;;0.54;100.00;97217.50;4929556;28;20214;-56
2022/01/31 01:00:04;;;;;;;6.63;3.13;;;;;;;0.53;100.00;97223.66;4935993;28;20775;-55
2022/01/31 01:02:32;;;;;;;3.10;2.83;;;;;;;0.40;100.00;97211.59;4945705;28;20234;-55
2022/01/31 01:05:00;;;;;;;6.20;3.83;;;;;;;0.54;100.00;97189.63;4950207;28;20332;-50
2022/01/31 01:07:28;;;;;;;9.53;3.30;;;;;;;0.35;100.00;97190.25;4917684;28;20804;-54
2022/01/31 01:09:58;;;;;;;7.87;3.73;;;;;;;0.39;100.00;97177.81;4925030;28;20242;-52
2022/01/31 01:12:26;;;;;;;5.80;3.03;;;;;;;0.40;100.00;97182.06;4954481;28;20214;-57
2022/01/31 01:14:54;;;;;;;8.57;4.07;;;;;;;0.37;100.00;97179.72;4930414;28;20238;-56
2022/01/31 01:17:22;;;;;;;9.47;3.40;;;;;;;0.46;100.00;97168.56;4952626;28;20207;-50
2022/01/31 01:19:50;;;;;;;3.13;2.80;;;;;;;0.33;100.00;97173.91;4943603;28;20301;-57
2022/01/31 01:22:18;;;;;;;4.53;3.23;;;;;;;0.34;100.00;97170.34;4922492;28;20258;-52
2022/01/31 01:24:48;;;;;;;4.57;3.10;;;;;;;0.33;100.00;97170.47;4952203;28;20238;-57
2022/01/31 01:27:19;;;;;;;6.13;3.70;;;;;;;0.27;100.00;97171.78;4947589;28;20212;-50
2022/01/31 01:29:47;;;;;;;8.63;4.10;;;;;;;0.18;100.00;97172.50;4939971;28;20203;-57
2022/01/31 01:32:16;;;;;;;7.60;3.60;;;;;;;0.21;100.00;97167.88;4945364;28;20222;-53
2022/01/31 01:34:45;;;;;;;7.47;3.87;;;;;;;0.21;100.00;97160.06;4950495;28;20230;-53
2022/01/31 01:37:15;;;;;;;6.40;3.43;;;;;;;0.21;100.00;97157.47;4921327;28;21027;-53
2022/01/31 01:39:45;;;;;;;4.40;3.57;;;;;;;0.21;100.00;97148.81;4944909;28;20211;-54
2022/01/31 01:42:13;;;;;;;7.40;3.23;;;;;;;0.26;100.00;97144.06;4948196;28;20212;-55
2022/01/31 01:44:47;;;;;;;4.43;2.90;;;;;;;0.38;100.00;97135.28;4951511;28;20234;-53
2022/01/31 01:47:17;;;;;;;7.03;2.70;;;;;;;0.32;100.00;97134.94;4927721;28;20209;-52
2022/01/31 01:49:46;;;;;;;5.40;3.20;;;;;;;0.21;100.00;97113.16;4949930;28;20216;-55
2022/01/31 01:52:14;;;;;;;5.40;3.37;;;;;;;0.19;100.00;97089.00;4948713;28;20202;-52
2022/01/31 01:54:42;;;;;;;7.13;3.30;;;;;;;0.19;100.00;97090.78;4918793;28;20231;-53
2022/01/31 01:57:10;;;;;;;5.57;2.70;;;;;;;0.08;100.00;97078.56;4945758;28;20233;-50
2022/01/31 01:59:40;;;;;;;8.67;3.63;;;;;;;0.06;100.00;97063.09;4922290;28;20758;-54
2022/01/31 02:02:10;;;;;;;8.83;4.00;;;;;;;0.09;100.00;97059.38;4926167;28;21357;-51
2022/01/31 02:04:38;;;;;;;4.63;3.20;;;;;;;0.14;100.00;97049.44;4948399;28;20240;-52
2022/01/31 02:07:08;;;;;;;5.17;3.07;;;;;;;0.14;100.00;97041.63;4948689;28;20273;-50
2022/01/31 02:09:42;;;;;;;6.40;3.17;;;;;;;0.03;100.00;97026.84;4925955;28;20318;-57
2022/01/31 02:12:11;;;;;;;5.50;3.10;;;;;;;-0.04;100.00;97018.69;4951018;28;20948;-50
2022/01/31 02:14:40;;;;;;;7.90;3.37;;;;;;;-0.13;100.00;97019.41;4950232;28;20497;-57
2022/01/31 02:17:08;;;;;;;6.70;3.20;;;;;;;-0.13;100.00;97016.81;4926299;28;21943;-55
2022/01/31 02:19:38;;;;;;;8.97;3.63;;;;;;;-0.23;100.00;96995.03;4952957;28;20222;-54
2022/01/31 02:22:08;;;;;;;5.73;3.63;;;;;;;-0.25;100.00;96997.78;4949643;28;20210;-49
2022/01/31 02:24:36;;;;;;;5.80;2.90;;;;;;;-0.28;100.00;96968.53;4941195;28;20239;-58
2022/01/31 02:27:05;;;;;;;6.23;2.63;;;;;;;-0.27;100.00;96962.38;4920369;28;20450;-54
2022/01/31 02:29:33;;;;;;;3.27;2.80;;;;;;;-0.28;100.00;96948.53;4948869;28;20285;-53
2022/01/31 02:32:02;;;;;;;3.83;3.00;;;;;;;-0.26;100.00;96941.44;4921616;28;20206;-51
2022/01/31 02:34:30;;;;;;;5.07;2.70;;;;;;;-0.24;100.00;96929.13;4950327;28;20233;-51
2022/01/31 02:36:58;;;;;;;2.57;2.37;;;;;;;-0.37;100.00;96926.66;4947417;28;20203;-51
2022/01/31 02:39:28;;;;;;;8.40;2.80;;;;;;;-0.04;100.00;96911.06;4952232;28;20230;-49
2022/01/31 02:41:56;;;;;;;5.37;3.17;;;;;;;-0.17;100.00;96887.81;4905474;28;20292;-57
2022/01/31 02:44:24;;;;;;;5.40;2.53;;;;;;;-0.07;100.00;96870.47;4952527;28;20226;-51
2022/01/31 02:46:54;;;;;;;6.97;2.70;;;;;;;-0.15;100.00;96873.69;4948228;28;20765;-50
2022/01/31 02:49:28;;;;;;;5.23;3.30;;;;;;;-0.13;100.00;96862.31;4922361;28;20612;-48
2022/01/31 02:51:59;;;;;;;8.43;3.13;;;;;;;-0.19;100.00;96861.88;4945640;28;20881;-48
2022/01/31 02:54:31;;;;;;;6.97;2.73;;;;;;;-0.25;100.00;96862.38;4949436;28;20226;-49
2022/01/31 02:56:59;;;;;;;6.50;3.10;;;;;;;-0.28;100.00;96841.78;4900180;28;20545;-51
2022/01/31 02:59:28;;;;;;;8.57;2.50;;;;;;;-0.17;100.00;96852.16;4950526;28;20777;-50
2022/01/31 03:01:56;;;;;;;5.30;3.03;;;;;;;-0.34;100.00;96830.09;4949144;28;20487;-50
2022/01/31 03:04:24;;;;;;;5.47;3.00;;;;;;;-0.38;100.00;96813.06;4924766;28;20318;-50
2022/01/31 03:06:53;;;;;;;9.93;3.73;;;;;;;-0.40;100.00;96811.53;4946218;28;20670;-47
2022/01/31 03:09:21;;;;;;;4.80;2.70;;;;;;;-0.46;100.00;96815.47;4948944;28;20210;-50
2022/01/31 03:11:51;;;;;;;4.43;2.87;;;;;;;-0.59;100.00;96813.81;4911206;28;20237;-54
2022/01/31 03:14:19;;;;;;;5.97;3.37;;;;;;;-0.45;100.00;96827.53;4895525;28;21053;-53
2022/01/31 03:16:48;;;;;;;6.03;3.63;;;;;;;-0.52;100.00;96814.16;4949482;28;20226;-48
2022/01/31 03:19:17;;;;;;;3.73;2.47;;;;;;;-0.51;100.00;96784.59;4943806;28;20249;-50
2022/01/31 03:21:45;;;;;;;4.83;2.63;;;;;;;-0.51;100.00;96792.41;4949256;28;20211;-51
2022/01/31 03:24:14;;;;;;;7.13;3.00;;;;;;;-0.65;100.00;96788.31;4946196;28;20245;-55
2022/01/31 03:26:43;;;;;;;4.20;2.83;;;;;;;-0.71;100.00;96778.41;4948801;28;20253;-49
2022/01/31 03:29:13;;;;;;;5.43;2.80;;;;;;;-0.50;100.00;96775.03;4913699;28;20655;-55
2022/01/31 03:31:42;;;;;;;8.67;3.77;;;;;;;-0.46;100.00;96750.41;4936435;28;20211;-52
2022/01/31 03:34:10;;;;;;;4.93;3.57;;;;;;;-0.47;100.00;96764.34;4944524;28;20725;-52
2022/01/31 03:36:38;;;;;;;7.00;2.87;;;;;;;-0.44;100.00;96743.28;4924704;28;20207;-51
2022/01/31 03:39:07;;;;;;;7.80;3.07;;;;;;;-0.43;100.00;96737.13;4946654;28;21242;-53
2022/01/31 03:41:35;;;;;;;3.63;2.80;;;;;;;-0.39;100.00;96740.28;4948343;28;20285;-54
2022/01/31 03:44:04;;;;;;;3.27;2.53;;;;;;;-0.45;100.00;96736.44;4930954;28;20230;-55
2022/01/31 03:46:35;;;;;;;3.50;3.10;;;;;;;-0.44;100.00;96701.63;4927809;28;20486;-52
2022/01/31 03:49:04;;;;;;;4.47;3.20;;;;;;;-0.42;100.00;96699.72;4946499;28;20314;-53
2022/01/31 03:51:32;;;;;;;3.40;2.83;;;;;;;-0.52;100.00;96691.03;4927676;28;20794;-53
2022/01/31 03:54:00;;;;;;;6.40;3.33;;;;;;;-0.46;100.00;96675.72;4946335;28;20706;-50
2022/01/31 03:56:28;;;;;;;3.73;2.80;;;;;;;-0.56;100.00;96681.84;4947026;28;20988;-50
2022/01/31 03:58:57;;;;;;;4.73;2.70;;;;;;;-0.60;100.00;96669.06;4950621;28;20658;-48
2022/01/31 04:01:26;;;;;;;3.80;2.27;;;;;;;-0.61;100.00;96669.19;4901399;28;20218;-50
2022/01/31 04:03:56;;;;;;;4.17;3.20;;;;;;;-0.51;100.00;96658.84;4945202;28;20230;-52
2022/01/31 04:06:24;;;;;;;6.03;2.63;;;;;;;-0.52;100.00;96663.22;4945852;28;20703;-53
2022/01/31 04:08:53;;;;;;;6.20;3.00;;;;;;;-0.65;100.00;96679.00;4928484;28;20215;-51
2022/01/31 04:11:21;;;;;;;4.73;2.83;;;;;;;-0.55;100.00;96673.88;4946901;28;20210;-51
2022/01/31 04:13:49;;;;;;;5.40;3.43;;;;;;;-0.59;100.00;96669.88;4918308;28;20322;-50
2022/01/31 04:16:17;;;;;;;3.17;2.97;;;;;;;-0.67;100.00;96683.53;4901397;28;20218;-50
2022/01/31 04:18:46;;;;;;;5.30;3.20;;;;;;;-0.56;100.00;96693.06;4947692;28;20210;-49
2022/01/31 04:21:15;;;;;;;3.97;3.37;;;;;;;-0.53;100.00;96690.19;4945596;28;20210;-54
2022/01/31 04:23:46;;;;;;;5.60;3.60;;;;;;;-0.55;100.00;96681.69;4926033;28;20320;-52
2022/01/31 04:26:15;;;;;;;3.90;3.03;;;;;;;-0.66;100.00;96671.34;4943113;28;20276;-50
2022/01/31 04:28:45;;;;;;;5.87;3.60;;;;;;;-0.61;100.00;96648.38;4948899;28;20297;-53
2022/01/31 04:31:34;;;;;;;8.03;3.63;;;;;;;-0.57;100.00;96633.31;4902281;28;21691;-50
2022/01/31 04:34:02;;;;;;;5.10;3.00;;;;;;;-0.45;100.00;96624.50;4947106;28;20218;-51
2022/01/31 04:36:32;;;;;;;4.87;3.80;;;;;;;-0.52;100.00;96634.59;4951980;28;20831;-49
2022/01/31 04:39:01;;;;;;;6.67;3.33;;;;;;;-0.48;100.00;96651.59;4927134;28;20480;-50
2022/01/31 04:41:30;;;;;;;4.90;3.43;;;;;;;-0.49;100.00;96638.72;4954045;28;20628;-53
2022/01/31 04:44:04;;;;;;;5.33;2.97;;;;;;;-0.45;100.00;96635.72;4950092;28;20400;-53
2022/01/31 04:46:32;;;;;;;4.53;2.80;;;;;;;-0.42;100.00;96626.84;4952339;28;20785;-56
2022/01/31 04:49:01;;;;;;;4.63;3.03;;;;;;;-0.28;100.00;96622.25;4903731;28;20460;-53
2022/01/31 04:51:29;;;;;;;3.90;3.53;;;;;;;-0.30;100.00;96622.38;4951009;28;20238;-57
2022/01/31 04:53:58;;;;;;;5.23;3.17;;;;;;;-0.24;100.00;96629.69;4928413;28;20487;-51
2022/01/31 04:56:27;;;;;;;5.73;3.50;;;;;;;-0.14;100.00;96627.13;4951655;28;20211;-55
2022/01/31 04:58:55;;;;;;;5.70;2.90;;;;;;;-0.32;100.00;96632.91;4946702;28;20277;-53
2022/01/31 05:01:23;;;;;;;4.63;3.00;;;;;;;-0.31;100.00;96618.13;4951780;28;20644;-50
2022/01/31 05:03:52;;;;;;;6.00;3.33;;;;;;;-0.27;100.00;96597.84;4897704;28;20230;-52
2022/01/31 05:06:26;;;;;;;7.40;3.90;;;;;;;-0.28;100.00;96591.00;4952266;28;20210;-54
2022/01/31 05:08:55;;;;;;;4.87;2.73;;;;;;;-0.16;100.00;96566.53;4947158;28;20218;-51
2022/01/31 05:11:24;;;;;;;2.57;2.43;;;;;;;-0.17;100.00;96563.09;4931778;28;20986;-51
2022/01/31 05:13:52;;;;;;;5.63;3.30;;;;;;;-0.32;100.00;96557.41;4947273;28;20264;-53
2022/01/31 05:16:22;;;;;;;6.50;3.40;;;;;;;-0.26;100.00;96544.84;4950656;28;20199;-53
2022/01/31 05:18:50;;;;;;;6.33;4.23;;;;;;;-0.24;100.00;96535.94;4905034;28;20225;-54
2022/01/31 05:21:18;;;;;;;10.63;5.83;;;;;;;-0.25;100.00;96536.06;4895932;28;21451;-52
2022/01/31 05:23:49;;;;;;;5.60;3.13;;;;;;;-0.33;100.00;96523.72;4950938;28;20663;-55
2022/01/31 05:26:18;;;;;;;4.37;3.03;;;;;;;-0.24;100.00;96533.34;4936484;28;20459;-52
2022/01/31 05:28:47;;;;;;;4.83;3.57;;;;;;;-0.23;100.00;96528.94;4923463;28;21221;-52
2022/01/31 05:31:15;;;;;;;3.70;2.70;;;;;;;-0.37;100.00;96527.56;4929000;28;20474;-55
2022/01/31 05:33:44;;;;;;;7.40;3.50;;;;;;;-0.41;100.00;96518.34;4923705;28;20606;-50
2022/01/31 05:36:12;;;;;;;4.67;3.40;;;;;;;-0.29;100.00;96514.69;4954991;28;20202;-53
2022/01/31 05:38:41;;;;;;;2.83;2.63;;;;;;;-0.31;100.00;96498.38;4897245;28;20813;-52
2022/01/31 05:41:16;;;;;;;3.80;2.90;;;;;;;-0.44;100.00;96490.81;4953395;28;20265;-57
2022/01/31 05:43:45;;;;;;;5.27;3.37;;;;;;;-0.34;100.00;96489.03;4947145;28;20789;-52
2022/01/31 05:46:15;;;;;;;4.37;2.93;;;;;;;-0.41;100.00;96481.88;4948601;28;21020;-48
2022/01/31 05:48:43;;;;;;;4.90;2.90;;;;;;;-0.41;100.00;96467.13;4905813;28;21723;-52
2022/01/31 05:51:16;;;;;;;3.33;2.87;;;;;;;-0.30;100.00;96453.97;4951877;28;20210;-51
2022/01/31 05:53:45;;;;;;;6.50;3.13;;;;;;;-0.44;100.00;96456.97;4904226;28;20745;-55
2022/01/31 05:56:14;;;;;;;7.60;3.33;;;;;;;-0.47;100.00;96442.44;4946048;28;20683;-55
2022/01/31 05:58:42;;;;;;;5.97;3.17;;;;;;;-0.53;100.00;96435.16;4948901;28;20312;-56
2022/01/31 06:01:10;;;;;;;4.33;3.37;;;;;;;-0.40;100.00;96432.31;4950630;28;20293;-49
2022/01/31 06:03:40;;;;;;;5.33;3.33;;;;;;;-0.35;100.00;96417.13;4931463;28;20769;-51
2022/01/31 06:06:09;;;;;;;4.60;3.33;;;;;;;-0.56;100.00;96399.00;4933395;28;20225;-52
2022/01/31 06:08:37;;;;;;;6.80;3.63;;;;;;;-0.42;100.00;96403.00;4904726;28;21364;-50
2022/01/31 06:11:05;;;;;;;5.63;3.80;;;;;;;-0.48;100.00;96393.13;4948906;28;20206;-51
2022/01/31 06:13:34;;;;;;;5.97;3.67;;;;;;;-0.53;100.00;96375.31;4945463;28;20235;-51
2022/01/31 06:16:02;;;;;;;4.33;3.67;;;;;;;-0.45;100.00;96375.44;4931641;28;20305;-51
2022/01/31 06:18:30;;;;;;;3.90;3.57;;;;;;;-0.40;100.00;96366.41;4931746;28;20610;-50
2022/01/31 06:21:00;;;;;;;4.97;3.77;;;;;;;-0.35;100.00;96370.25;4929863;28;20316;-55
2022/01/31 06:23:29;;;;;;;9.00;4.30;;;;;;;-0.44;100.00;96369.28;4947974;28;20281;-52
2022/01/31 06:25:57;;;;;;;8.20;3.83;;;;;;;-0.40;100.00;96364.63;4905716;28;20298;-50
2022/01/31 06:28:25;;;;;;;7.17;3.77;;;;;;;-0.53;100.00;96358.88;4931892;28;20234;-49
2022/01/31 06:30:54;;;;;;;7.90;4.43;;;;;;;-0.51;100.00;96359.56;4947688;28;20273;-54
2022/01/31 06:33:22;;;;;;;7.10;4.40;;;;;;;-0.52;100.00;96352.72;4926222;28;20788;-54
2022/01/31 06:35:50;;;;;;;6.43;3.77;;;;;;;-0.36;100.00;96344.38;4951779;28;20312;-53
2022/01/31 06:38:21;;;;;;;4.83;4.13;;;;;;;-0.33;100.00;96326.69;4948914;28;20766;-47
2022/01/31 06:40:50;;;;;;;8.20;3.63;;;;;;;-0.45;100.00;96309.56;4902478;28;20302;-54
2022/01/31 06:43:18;;;;;;;3.73;3.40;;;;;;;-0.28;100.00;96315.88;4931385;28;20325;-54
2022/01/31 06:45:46;;;;;;;5.63;4.53;;;;;;;-0.35;100.00;96301.78;4952290;28;20792;-53
2022/01/31 06:48:14;;;;;;;12.90;8.83;;;;;;;-0.38;100.00;96295.03;4946480;28;20786;-52
2022/01/31 06:50:43;;;;;;;10.80;5.73;;;;;;;-0.32;100.00;96281.47;4935238;28;20491;-53
2022/01/31 06:53:12;;;;;;;4.97;3.97;;;;;;;-0.29;100.00;96269.97;4942363;28;20234;-50
2022/01/31 06:55:42;;;;;;;4.30;3.90;;;;;;;-0.27;100.00;96275.03;4904740;28;20219;-51
2022/01/31 06:58:10;;;;;;;5.57;4.23;;;;;;;-0.24;100.00;96265.19;4921803;28;20830;-52
2022/01/31 07:00:38;;;;;;;7.10;4.17;;;;;;;-0.13;100.00;96250.34;4948444;28;20234;-55
2022/01/31 07:03:10;;;;;;;9.53;5.13;;;;;;;-0.05;100.00;96235.69;4948102;28;20284;-53
2022/01/31 07:05:38;;;;;;;6.63;4.80;;;;;;;-0.09;100.00;96262.97;4933076;28;20388;-52
2022/01/31 07:08:11;;;;;;;6.83;4.47;;;;;;;0.02;100.00;96254.19;4950656;28;20234;-54
2022/01/31 07:10:41;;;;;;;6.93;5.17;;;;;;;0.06;100.00;96246.88;4913398;28;20207;-57
2022/01/31 07:13:23;;;;;;;6.10;5.13;;;;;;;-0.14;100.00;96244.34;4931820;28;20257;-50
2022/01/31 07:15:51;;;;;;;5.93;4.40;;;;;;;-0.07;100.00;96226.34;4944220;28;20446;-53
2022/01/31 07:18:19;;;;;;;8.73;5.00;;;;;;;0.02;100.00;96251.56;4949092;28;21179;-54
2022/01/31 07:20:51;;;;;;;6.00;4.67;;;;;;;-0.01;100.00;96250.06;4927683;28;20425;-52
2022/01/31 07:23:25;;;;;;;9.37;5.30;;;;;;;0.03;100.00;96231.53;4945018;28;20689;-52
2022/01/31 07:25:56;;;;;;;6.20;4.43;;;;;;;0.06;100.00;96244.28;4901740;28;20257;-53
2022/01/31 07:28:24;;;;;;;7.10;4.60;;;;;;;0.11;100.00;96237.69;4917935;28;20274;-52
2022/01/31 07:30:53;;;;;;;10.33;5.63;;;;;;;0.13;100.00;96240.13;4869850;28;20305;-51
2022/01/31 07:33:21;;;;;;;8.57;4.87;;;;;;;0.14;100.00;96239.16;4919817;28;20337;-56
2022/01/31 07:35:51;;;;;;;5.87;4.70;;;;;;;0.14;100.00;96231.34;4930598;28;20317;-58
2022/01/31 07:38:19;;;;;;;8.97;5.40;;;;;;;0.17;100.00;96225.84;4943586;28;20578;-54
2022/01/31 07:40:48;;;;;;;12.90;5.43;;;;;;;0.18;100.00;96221.50;4948230;28;20281;-55
2022/01/31 07:43:18;;;;;;;7.93;4.67;;;;;;;0.10;100.00;96223.03;4945045;28;20738;-52
2022/01/31 07:45:46;;;;;;;5.50;5.00;;;;;;;0.14;100.00;96219.16;4905096;28;20301;-54
2022/01/31 07:48:14;;;;;;;6.57;4.17;;;;;;;0.11;100.00;96219.47;4937501;28;20786;-55
2022/01/31 07:50:42;;;;;;;9.63;5.47;;;;;;;-0.02;100.00;96200.69;4927511;28;20284;-54
2022/01/31 07:53:10;;;;;;;9.37;4.43;;;;;;;-0.14;100.00;96215.69;4932763;28;20474;-54
2022/01/31 07:55:39;;;;;;;7.77;5.03;;;;;;;-0.23;100.00;96219.94;4921357;28;20214;-53
2022/01/31 07:58:07;;;;;;;7.47;6.43;;;;;;;-0.40;100.00;96215.44;4929153;28;20241;-54
2022/01/31 08:00:57;;;;;;;5.67;4.37;;;;;;;-0.55;100.00;96209.88;4904534;28;20461;-54
2022/01/31 08:03:25;;;;;;;6.87;5.23;;;;;;;-0.70;100.00;96197.25;4928485;28;20381;-52
2022/01/31 08:05:53;;;;;;;7.50;5.87;;;;;;;-0.78;100.00;96195.34;4943513;28;20273;-55
2022/01/31 08:08:22;;;;;;;5.70;5.20;;;;;;;-0.68;100.00;96182.34;4926473;28;20325;-52
2022/01/31 08:10:50;;;;;;;7.00;5.00;;;;;;;-0.70;100.00;96176.44;4925344;28;20309;-51
2022/01/31 08:13:18;;;;;;;6.70;5.10;;;;;;;-0.65;100.00;96171.66;4927517;28;20714;-52
2022/01/31 08:15:49;;;;;;;8.00;5.60;;;;;;;-0.68;100.00;96173.72;4904901;28;20445;-51
2022/01/31 08:18:19;;;;;;;7.00;6.30;;;;;;;-0.64;100.00;96167.28;4926733;28;20542;-58
2022/01/31 08:20:47;;;;;;;8.97;5.53;;;;;;;-0.61;100.00;96169.59;4944763;28;20591;-51
2022/01/31 08:23:15;;;;;;;6.37;5.83;;;;;;;-0.59;100.00;96149.47;4925806;28;20287;-51
2022/01/31 08:25:48;;;;;;;9.77;5.73;;;;;;;-0.65;100.00;96143.03;4942546;28;20667;-53
2022/01/31 08:28:16;;;;;;;7.30;5.87;;;;;;;-0.62;100.00;96134.94;4915478;28;20405;-56
2022/01/31 08:30:51;;;;;;;8.43;5.13;;;;;;;-0.55;100.00;96135.22;4944407;28;20721;-54
2022/01/31 08:33:35;;;;;;;9.10;5.63;;;;;;;-0.45;100.00;96115.19;4880284;28;20327;-52
2022/01/31 08:36:05;;;;;;;10.50;6.57;;;;;;;-0.39;100.00;96113.81;4943207;28;20686;-53
2022/01/31 08:38:34;;;;;;;9.43;6.43;;;;;;;-0.51;100.00;96112.34;4932723;28;20810;-50
2022/01/31 08:41:04;;;;;;;7.03;5.93;;;;;;;-0.49;100.00;96113.81;4946538;28;20389;-53
2022/01/31 08:43:33;;;;;;;6.90;5.53;;;;;;;-0.45;100.00;96103.97;4915370;28;20375;-56
2022/01/31 08:46:01;;;;;;;6.83;6.10;;;;;;;-0.44;100.00;96103.00;4947811;28;20214;-56
2022/01/31 08:48:31;;;;;;;6.47;5.73;;;;;;;-0.55;100.00;96108.38;4904070;28;20461;-53
2022/01/31 08:51:00;;;;;;;7.63;6.17;;;;;;;-0.54;100.00;96097.00;4925451;28;20723;-53
2022/01/31 08:53:28;;;;;;;7.53;6.17;;;;;;;-0.63;100.00;96102.06;4947905;28;20620;-53
2022/01/31 08:55:59;;;;;;;6.20;5.27;;;;;;;-0.50;100.00;96103.56;4934668;28;20210;-55
2022/01/31 08:58:28;;;;;;;6.80;6.10;;;;;;;-0.57;100.00;96095.50;4934104;28;20288;-51
2022/01/31 09:01:01;;;;;;;7.70;5.93;;;;;;;-0.60;100.00;96094.00;4933583;28;20583;-55
2022/01/31 09:06:19;;;;;;;7.53;6.20;;;;;;;-0.67;100.00;96089.50;4932441;28;20608;-55
2022/01/31 09:08:48;;;;;;;5.93;5.53;;;;;;;-0.79;100.00;96071.44;4949322;28;20265;-56
2022/01/31 09:11:16;;;;;;;5.50;5.10;;;;;;;-0.70;100.00;96077.59;4927004;28;20820;-57
2022/01/31 09:13:45;;;;;;;5.83;5.23;;;;;;;-0.82;100.00;96074.31;4933132;28;20238;-54
2022/01/31 09:16:13;;;;;;;7.40;4.87;;;;;;;-0.76;100.00;96071.19;4926380;28;20705;-52
2022/01/31 09:18:43;;;;;;;9.27;5.97;;;;;;;-0.63;100.00;96075.25;4905800;28;20218;-57
2022/01/31 09:21:11;;;;;;;5.33;4.50;;;;;;;-0.63;100.00;96072.66;4940753;28;20206;-54
2022/01/31 09:23:40;;;;;;;5.40;4.90;;;;;;;-0.59;100.00;96072.22;4949558;28;20308;-56
2022/01/31 09:26:09;;;;;;;5.50;5.00;;;;;;;-0.44;100.00;96067.38;4929466;28;20218;-55
2022/01/31 09:28:37;;;;;;;6.43;4.80;;;;;;;-0.35;100.00;96060.50;4946718;28;20887;-56
2022/01/31 09:31:06;;;;;;;4.90;4.40;;;;;;;-0.32;100.00;96070.63;4929819;28;20485;-56
2022/01/31 09:33:34;;;;;;;4.90;4.50;;;;;;;-0.18;100.00;96060.72;4912508;28;20247;-54
2022/01/31 09:36:04;;;;;;;5.23;4.73;;;;;;;-0.11;100.00;96060.94;4947482;28;20213;-54
2022/01/31 09:38:32;;;;;;;4.60;4.20;;;;;;;-0.19;100.00;96065.09;4893914;28;20308;-54
2022/01/31 09:41:01;;;;;;;4.73;4.33;;;;;;;-0.10;100.00;96084.25;4948427;28;20683;-57
2022/01/31 09:46:44;;;;;;;4.03;3.63;;;;;;;-0.03;100.00;96063.63;4932228;28;20217;-56
2022/01/31 09:49:13;;;;;;;3.80;3.50;;;;;;;-0.02;100.00;96068.72;4944248;28;20222;-56
2022/01/31 09:51:43;;;;;;;3.73;3.43;;;;;;;0.06;100.00;96074.97;4902679;28;20669;-54
2022/01/31 09:54:12;;;;;;;3.80;3.57;;;;;;;0.02;100.00;96063.22;4950912;28;20292;-52
2022/01/31 09:56:42;;;;;;;2.90;2.67;;;;;;;0.08;100.00;96070.44;4949764;28;20615;-55
2022/01/31 09:59:11;;;;;;;3.20;3.00;;;;;;;0.26;100.00;96078.28;4936014;28;20466;-58
2022/01/31 10:01:42;;;;;;;2.27;2.17;;;;;;;0.34;100.00;96069.75;4933798;28;21633;-54
2022/01/31 10:04:14;;;;;;;2.20;2.10;;;;;;;0.22;100.00;96075.16;4949462;28;20226;-54
2022/01/31 10:06:45;;;;;;;2.00;1.90;;;;;;;0.30;100.00;96087.44;4949927;28;20202;-56
2022/01/31 10:09:15;;;;;;;1.40;1.40;;;;;;;0.44;100.00;96080.91;4898436;28;20745;-53
2022/01/31 10:11:50;;;;;;;3.00;2.30;;;;;;;0.45;100.00;96077.34;4943787;28;20944;-55
2022/01/31 10:17:09;;;;;;;1.60;1.50;;;;;;;0.85;100.00;96060.44;4948618;28;20214;-53
2022/01/31 10:19:51;;;;;;;2.60;2.10;;;;;;;0.84;100.00;96055.38;4941464;28;20206;-51
2022/01/31 10:22:21;;;;;;;2.00;1.73;;;;;;;1.13;100.00;96046.44;4937599;28;20822;-53
2022/01/31 10:24:52;;;;;;;1.50;1.40;;;;;;;1.14;100.00;96043.69;4878659;28;20324;-51
2022/01/31 10:27:23;;;;;;;1.90;1.80;;;;;;;1.62;100.00;96039.88;4947440;28;20385;-56
2022/01/31 10:29:53;;;;;;;1.80;1.70;;;;;;;2.10;100.00;96040.25;4937066;28;20226;-54
2022/01/31 10:32:27;;;;;;;1.70;1.70;;;;;;;2.15;100.00;96045.81;4933123;28;20234;-50
2022/01/31 10:34:57;;;;;;;1.63;1.63;;;;;;;2.37;100.00;96038.34;4932117;28;20337;-51
2022/01/31 10:37:29;;;;;;;1.50;1.50;;;;;;;2.43;100.00;96046.34;4948269;28;20804;-55
2022/01/31 10:54:25;;;;;;;1.90;1.80;;;;;;;1.70;100.00;96039.94;4906508;29;20593;-51
2022/01/31 10:56:55;;;;;;;1.57;1.47;;;;;;;1.85;100.00;96042.75;4863963;29;20397;-53
2022/01/31 10:59:25;;;;;;;1.80;1.70;;;;;;;2.06;100.00;96054.56;4893699;29;21124;-49
2022/01/31 11:01:55;;;;;;;2.63;2.07;;;;;;;2.14;100.00;96052.00;4893119;29;20338;-57
2022/01/31 11:04:33;;;;;;;1.80;1.70;;;;;;;2.05;100.00;96063.41;4907972;29;20399;-51
2022/01/31 11:07:06;;;;;;;2.60;2.37;;;;;;;1.94;100.00;96049.66;4893580;29;20247;-54
2022/01/31 11:09:36;;;;;;;2.33;2.23;;;;;;;2.15;100.00;96037.97;4908925;29;20650;-50
2022/01/31 11:12:05;;;;;;;2.00;1.90;;;;;;;2.34;100.00;96036.88;4855727;29;20307;-55
2022/01/31 11:14:34;;;;;;;2.73;2.53;;;;;;;2.21;100.00;96031.28;4908833;29;20315;-55
2022/01/31 11:17:08;;;;;;;4.40;2.10;;;;;;;2.11;100.00;96020.97;4886912;29;20908;-50
2022/01/31 11:19:38;;;;;;;2.13;2.03;;;;;;;2.10;100.00;96030.59;4905840;29;20703;-53
2022/01/31 11:22:07;;;;;;;3.37;2.70;;;;;;;2.28;100.00;96027.06;4891037;29;20823;-54
2022/01/31 11:24:40;;;;;;;2.33;2.23;;;;;;;2.20;100.00;96030.47;4907388;29;20500;-55
2022/01/31 11:27:10;;;;;;;2.30;2.20;;;;;;;2.22;100.00;96030.28;4865501;28;20363;-55
2022/01/31 11:29:42;;;;;;;2.60;2.30;;;;;;;2.17;100.00;96020.34;4932428;28;20304;-52
2022/01/31 11:32:10;;;;;;;2.30;2.20;;;;;;;2.36;100.00;96026.25;4920442;28;20242;-58
2022/01/31 11:34:40;;;;;;;4.87;2.50;;;;;;;2.19;100.00;96023.59;4946098;28;21829;-56
2022/01/31 11:37:09;;;;;;;2.77;2.57;;;;;;;2.07;100.00;96020.47;4930686;28;20906;-55
2022/01/31 11:39:42;;;;;;;2.20;2.10;;;;;;;2.15;100.00;96011.84;4942531;28;20674;-55
2022/01/31 11:42:10;;;;;;;2.47;2.37;;;;;;;2.19;100.00;96009.72;4900239;28;20215;-57
2022/01/31 11:44:52;;;;;;;2.57;2.37;;;;;;;2.06;100.00;96007.53;4876630;28;20861;-59
2022/01/31 11:47:22;;;;;;;2.40;2.27;;;;;;;2.16;100.00;96001.22;4947895;28;20238;-56
2022/01/31 11:49:53;;;;;;;2.67;2.23;;;;;;;2.26;100.00;95998.47;4927043;28;20520;-51
2022/01/31 11:52:23;;;;;;;2.10;1.83;;;;;;;2.21;100.00;96005.97;4950894;28;20202;-57
2022/01/31 11:54:54;;;;;;;2.30;2.10;;;;;;;2.48;100.00;96004.06;4946121;28;20520;-56
2022/01/31 11:57:25;;;;;;;2.10;2.00;;;;;;;2.51;100.00;95984.59;4943414;28;20211;-56
2022/01/31 11:59:55;;;;;;;2.17;2.00;;;;;;;2.33;100.00;95987.34;4908081;28;20746;-50
2022/01/31 12:02:25;;;;;;;3.07;2.00;;;;;;;1.97;100.00;95978.00;4947150;28;20203;-54